Latest Weather Observations for McCluer Island

IDD60801

Issued at 9:21 am CST Wednesday 25 May 2022 (issued every 10 minutes, with the page automatically refreshed every 10 minutes)

About weather observations | Map of weather stations | Latest weather observations for NT | Other Formats
Station Details ID: 014274 Name: MCCLUER ISLAND Lat: -11.05 Lon: 132.98 Height: 1.4 m
Data from the previous 72 hours. | See also: Recent months at McCluer Island
Date/Time
CST
Temp
°C
App
Temp
°C
Dew
Point
°C
Rel
Hum
%
Delta-T
°C
Wind Press
QNH
hPa
Press
MSL
hPa
Rain since
9am
mm
Dir  Spd
km/h
Gust
km/h
Spd
kts
Gust
kts
25/09:00am 28.3 29.5 23.9 77 3.0 ESE 24 28 13 15 1012.6 1012.6 0.0
25/08:30am 28.0 29.3 24.0 79 2.8 ESE 24 28 13 15 1012.7 1012.7 0.0
25/08:00am 28.1 29.4 24.1 79 2.8 ESE 24 30 13 16 1012.6 1012.6 0.0
25/07:30am 27.3 28.6 23.3 79 2.7 ESE 22 30 12 16 1012.4 1012.4 0.0
25/07:00am 26.8 28.4 23.3 81 2.4 SE 20 26 11 14 1012.4 1012.4 0.0
25/06:30am 27.1 28.2 23.6 81 2.4 SE 24 32 13 17 1012.4 1012.4 0.0
25/06:00am 26.9 28.7 23.6 82 2.3 SE 20 28 11 15 1012.1 1012.1 0.0
25/05:30am 27.1 28.8 24.0 83 2.1 ESE 22 30 12 16 1011.8 1011.8 0.0
25/05:00am 27.4 29.2 24.3 83 2.1 ESE 22 32 12 17 1011.5 1011.5 0.0
25/04:30am 27.4 31.1 24.5 84 2.0 SE 13 15 7 8 1011.3 1011.3 0.0
25/04:00am 27.9 31.2 24.5 82 2.4 ESE 15 19 8 10 1011.3 1011.3 0.0
25/03:30am 28.1 30.9 24.3 80 2.6 ESE 17 20 9 11 1011.4 1011.4 0.0
25/03:00am 28.6 31.3 24.8 80 2.7 E 19 20 10 11 1011.5 1011.5 0.0
25/02:30am 28.8 31.4 24.6 78 2.9 E 19 22 10 12 1011.8 1011.8 0.0
25/02:00am 28.9 32.3 24.7 78 2.9 ENE 15 19 8 10 1012.1 1012.1 0.0
25/01:30am 28.8 31.7 24.4 77 3.1 ENE 17 19 9 10 1012.3 1012.3 0.0
25/01:00am 28.8 31.8 24.6 78 2.9 ENE 17 20 9 11 1012.5 1012.5 0.0
25/12:30am 28.9 31.6 24.7 78 2.9 ENE 19 20 10 11 1012.7 1012.7 0.0
25/12:00am 28.9 31.6 24.7 78 2.9 ENE 19 20 10 11 1013.0 1013.0 0.0
 
Date/Time
CST
Temp
°C
App
Temp
°C
Dew
Point
°C
Rel
Hum
%
Delta-T
°C
Wind Press
QNH
hPa
Press
MSL
hPa
Rain since
9am
mm
Dir  Spd
km/h
Gust
km/h
Spd
kts
Gust
kts
24/11:30pm 29.0 32.0 25.2 80 2.7 ENE 19 20 10 11 1013.2 1013.2 0.0
24/11:00pm 28.9 31.1 24.9 79 2.8 NE 22 24 12 13 1013.2 1013.2 0.0
24/10:30pm 28.8 31.3 24.8 79 2.8 ENE 20 26 11 14 1013.3 1013.3 0.0
24/10:00pm 28.9 31.6 25.1 80 2.7 ENE 20 22 11 12 1013.3 1013.3 0.0
24/09:30pm 28.7 31.3 24.9 80 2.7 ENE 20 24 11 13 1013.3 1013.3 0.0
24/09:00pm 28.8 31.1 25.0 80 2.7 E 22 26 12 14 1013.1 1013.1 0.0
24/08:30pm 28.8 31.2 24.6 78 2.9 E 20 24 11 13 1012.9 1012.9 0.0
24/08:00pm 28.5 31.4 24.5 79 2.8 ESE 17 20 9 11 1012.7 1012.7 0.0
24/07:30pm 28.5 31.1 23.9 76 3.2 ESE 17 20 9 11 1012.4 1012.4 0.0
24/07:00pm 28.5 30.7 23.9 76 3.2 E 19 20 10 11 1012.0 1012.0 0.0
24/06:30pm 28.7 30.9 24.0 76 3.3 E 19 24 10 13 1011.4 1011.4 0.0
24/06:00pm 29.0 31.1 24.1 75 3.4 E 20 24 11 13 1010.8 1010.8 0.0
24/05:30pm 29.1 30.7 23.8 73 3.7 ESE 22 26 12 14 1010.6 1010.6 0.0
24/05:00pm 29.3 30.6 24.0 73 3.7 E 24 28 13 15 1010.4 1010.4 0.0
24/04:30pm 29.5 30.8 24.1 72 3.7 ESE 24 30 13 16 1010.3 1010.3 0.0
24/04:00pm 29.5 30.6 24.4 74 3.6 ESE 26 30 14 16 1010.1 1010.1 0.0
24/03:30pm 29.4 31.2 24.3 74 3.5 ESE 22 28 12 15 1010.0 1010.0 0.0
24/03:00pm 29.6 31.4 24.9 76 3.3 ESE 24 28 13 15 1010.1 1010.1 0.0
24/02:30pm 29.5 30.8 24.6 75 3.4 ESE 26 30 14 16 1010.3 1010.3 0.0
24/02:00pm 29.4 30.4 24.7 76 3.3 ESE 28 32 15 17 1010.9 1010.9 0.0
24/01:30pm 29.9 30.7 24.5 73 3.8 ESE 28 30 15 16 1011.3 1011.3 0.0
24/01:00pm 29.7 30.4 24.3 73 3.8 ESE 28 33 15 18 1011.5 1011.5 0.0
24/12:30pm 29.9 30.7 24.5 73 3.8 ESE 28 33 15 18 1011.9 1011.9 0.0
24/12:00pm 29.9 30.7 24.5 73 3.8 ESE 28 33 15 18 1012.2 1012.2 0.0
24/11:30am 29.6 30.7 24.9 76 3.3 ESE 28 33 15 18 1012.3 1012.3 0.0
24/11:00am 29.6 29.9 24.9 76 3.3 ESE 32 35 17 19 1012.6 1012.6 0.0
24/10:30am 29.3 29.4 24.0 73 3.7 ESE 30 35 16 19 1012.7 1012.7 0.0
24/10:00am 28.9 29.2 24.2 76 3.3 ESE 30 35 16 19 1012.7 1012.7 0.0
24/09:30am 29.1 29.4 24.2 75 3.4 ESE 30 35 16 19 1012.7 1012.7 0.0
24/09:00am 28.6 28.7 23.9 75 3.2 ESE 30 35 16 19 1012.6 1012.6 0.0
24/08:30am 28.3 28.8 23.9 77 3.0 ESE 28 35 15 19 1012.4 1012.4 0.0
24/08:00am 27.9 28.6 23.7 78 2.9 ESE 26 32 14 17 1012.2 1012.2 0.0
24/07:30am 27.8 29.2 24.2 81 2.5 ESE 24 30 13 16 1011.9 1011.9 0.0
24/07:00am 27.5 27.6 23.9 81 2.5 ESE 30 37 16 20 1011.4 1011.4 0.0
24/06:30am 27.8 27.1 23.6 78 2.9 ESE 33 39 18 21 1011.1 1011.1 0.0
24/06:00am 27.8 27.5 23.8 79 2.8 ESE 32 39 17 21 1010.9 1010.9 0.0
24/05:30am 27.7 26.4 23.1 76 3.1 ESE 35 39 19 21 1010.7 1010.7 0.0
24/05:00am 28.2 27.5 24.2 79 2.8 ESE 35 43 19 23 1010.7 1010.7 0.0
24/04:30am 28.0 26.3 23.8 78 2.9 ESE 39 46 21 25 1010.6 1010.6 0.0
24/04:00am 28.2 26.5 23.8 77 3.0 E 39 46 21 25 1010.6 1010.6 0.0
24/03:30am 28.2 27.0 24.0 78 2.9 ESE 37 44 20 24 1010.7 1010.7 0.0
24/03:00am 28.4 27.3 24.2 78 2.9 ESE 37 44 20 24 1010.7 1010.7 0.0
24/02:30am 28.5 26.9 24.5 79 2.8 E 41 46 22 25 1010.5 1010.5 0.0
24/02:00am 28.6 27.3 24.4 78 2.9 E 39 46 21 25 1010.6 1010.6 0.0
24/01:30am 28.6 27.8 24.6 79 2.8 E 37 44 20 24 1010.9 1010.9 0.0
24/01:00am 28.9 28.5 24.7 78 2.9 E 35 44 19 24 1011.2 1011.2 0.0
24/12:30am 29.1 29.7 25.3 80 2.7 E 32 35 17 19 1011.3 1011.3 0.0
24/12:00am 29.0 29.1 24.8 78 2.9 E 33 39 18 21 1011.5 1011.5 0.0
 
Date/Time
CST
Temp
°C
App
Temp
°C
Dew
Point
°C
Rel
Hum
%
Delta-T
°C
Wind Press
QNH
hPa
Press
MSL
hPa
Rain since
9am
mm
Dir  Spd
km/h
Gust
km/h
Spd
kts
Gust
kts
23/11:30pm 28.9 29.6 24.9 79 2.8 E 30 33 16 18 1011.7 1011.7 0.0
23/11:00pm 29.1 29.9 25.1 79 2.8 E 30 33 16 18 1011.9 1011.9 0.0
23/10:30pm 29.1 30.2 24.9 78 2.9 E 28 32 15 17 1011.9 1011.9 0.0
23/10:00pm 29.0 29.5 23.9 74 3.5 E 28 33 15 18 1011.8 1011.8 0.0
23/09:30pm 29.1 30.5 24.2 75 3.4 ENE 24 28 13 15 1011.8 1011.8 0.0
23/09:00pm 29.3 30.1 24.4 75 3.4 ENE 28 30 15 16 1011.7 1011.7 0.0
23/08:30pm 29.4 30.2 24.5 75 3.4 ENE 28 30 15 16 1011.4 1011.4 0.0
23/08:00pm 29.3 29.8 24.0 73 3.7 E 28 33 15 18 1011.1 1011.1 0.0
23/07:30pm 29.1 29.7 24.2 75 3.4 E 28 33 15 18 1010.7 1010.7 0.0
23/07:00pm 28.9 29.0 24.0 75 3.4 E 30 33 16 18 1010.3 1010.3 0.0
23/06:30pm 29.0 29.3 24.3 76 3.3 E 30 35 16 19 1010.1 1010.1 0.0
23/06:00pm 29.2 29.6 24.5 76 3.3 E 30 33 16 18 1009.9 1009.9 0.0
23/05:30pm 29.2 28.4 23.4 71 4.0 E 33 37 18 20 1009.6 1009.6 0.0
23/05:00pm 29.4 28.1 23.1 69 4.3 E 35 39 19 21 1009.4 1009.4 0.0
23/04:30pm 29.5 28.5 23.7 71 4.0 E 35 39 19 21 1009.2 1009.2 0.0
23/04:00pm 29.4 28.3 23.4 70 4.1 ESE 35 41 19 22 1009.1 1009.1 0.0
23/03:30pm 29.4 28.5 23.8 72 3.9 ESE 35 41 19 22 1009.0 1009.0 0.0
23/03:00pm 29.4 27.7 22.4 66 4.8 ESE 35 43 19 23 1009.3 1009.3 0.0
23/02:30pm 29.7 27.9 22.9 67 4.7 ESE 37 41 20 22 1009.5 1009.5 0.0
23/02:00pm 29.6 27.5 22.3 65 4.9 ESE 37 43 20 23 1009.9 1009.9 0.0
23/01:30pm 29.7 27.5 21.4 61 5.6 ESE 35 43 19 23 1010.4 1010.4 0.0
23/01:00pm 29.9 28.5 22.9 66 4.8 ESE 35 41 19 22 1010.7 1010.7 0.0
23/12:30pm 30.1 28.6 22.0 62 5.5 ESE 33 39 18 21 1011.1 1011.1 0.0
23/12:00pm 30.1 29.6 22.8 65 5.0 ESE 30 41 16 22 1011.5 1011.5 0.0
23/11:30am 30.0 28.9 22.4 63 5.2 ESE 32 39 17 21 1011.7 1011.7 0.0
23/11:00am 29.6 29.1 22.8 67 4.6 ESE 30 35 16 19 1012.0 1012.0 0.0
23/10:30am 29.8 28.4 22.3 64 5.1 ESE 33 39 18 21 1012.3 1012.3 0.0
23/10:00am 29.3 28.3 23.0 69 4.3 ESE 33 37 18 20 1012.4 1012.4 0.0
23/09:30am 28.9 28.1 23.3 72 3.8 ESE 33 39 18 21 1012.3 1012.3 0.0
23/09:00am 28.6 27.1 22.8 71 3.9 ESE 35 41 19 22 1012.2 1012.2 1.6
23/08:30am 28.4 27.4 22.6 71 3.9 ESE 32 39 17 21 1012.0 1012.0 1.6
23/08:00am 28.0 27.8 22.0 70 4.0 ESE 26 32 14 17 1012.0 1012.0 1.6
23/07:30am 27.8 27.7 22.3 72 3.7 ESE 26 32 14 17 1011.7 1011.7 1.6
23/07:00am 27.1 27.4 22.3 75 3.2 ESE 24 32 13 17 1011.5 1011.5 1.6
23/06:30am 27.0 26.7 22.6 77 3.0 ESE 28 35 15 19 1011.1 1011.1 1.6
23/06:00am 26.9 26.8 22.9 79 2.7 ESE 28 35 15 19 1010.7 1010.7 1.6
23/05:30am 26.9 26.3 23.4 81 2.4 ESE 32 43 17 23 1010.4 1010.4 1.6
23/05:00am 27.1 26.4 23.6 81 2.4 ESE 33 43 18 23 1010.2 1010.2 1.6
23/04:30am 27.2 25.9 23.2 79 2.7 ESE 35 44 19 24 1009.9 1009.9 1.6
23/04:00am 27.0 25.9 23.5 81 2.4 ESE 35 44 19 24 1009.8 1009.8 1.6
23/03:30am 26.4 26.8 23.7 85 1.9 SE 28 39 15 21 1009.9 1009.9 1.6
23/03:00am 26.3 26.3 23.8 86 1.7 SE 30 43 16 23 1009.8 1009.8 0.2
23/02:30am 28.5 30.0 24.3 78 2.9 E 24 28 13 15 1010.0 1010.0 0.0
23/02:00am 28.7 30.0 24.7 79 2.8 E 26 32 14 17 1010.0 1010.0 0.0
23/01:30am 28.7 30.0 24.7 79 2.8 E 26 32 14 17 1010.2 1010.2 0.0
23/01:00am 28.6 29.4 24.4 78 2.9 E 28 32 15 17 1010.5 1010.5 0.0
23/12:30am 28.8 29.9 24.4 77 3.1 E 26 30 14 16 1010.7 1010.7 0.0
23/12:00am 28.8 30.0 23.9 75 3.4 E 24 26 13 14 1010.7 1010.7 0.0
 
Date/Time
CST
Temp
°C
App
Temp
°C
Dew
Point
°C
Rel
Hum
%
Delta-T
°C
Wind Press
QNH
hPa
Press
MSL
hPa
Rain since
9am
mm
Dir  Spd
km/h
Gust
km/h
Spd
kts
Gust
kts
22/11:30pm 28.9 30.1 23.8 74 3.5 ENE 24 30 13 16 1010.7 1010.7 0.0
22/11:00pm 28.9 30.5 23.8 74 3.5 ENE 22 26 12 14 1010.7 1010.7 0.0
22/10:30pm 28.8 29.8 23.5 73 3.6 ENE 24 28 13 15 1010.8 1010.8 0.0
22/10:00pm 28.9 29.7 23.8 74 3.5 ENE 26 30 14 16 1010.7 1010.7 0.0
22/09:30pm 28.9 30.2 24.0 75 3.4 ENE 24 28 13 15 1010.7 1010.7 0.0
22/09:00pm 29.0 29.5 23.9 74 3.5 ENE 28 32 15 17 1010.5 1010.5 0.0
22/08:30pm 29.1 30.1 24.2 75 3.4 ENE 26 32 14 17 1010.4 1010.4 0.0
22/08:00pm 28.9 29.6 23.6 73 3.6 ENE 26 30 14 16 1010.2 1010.2 0.0
22/07:30pm 28.8 28.9 23.2 71 3.8 ENE 28 32 15 17 1010.0 1010.0 0.0
22/07:00pm 29.0 28.4 22.7 69 4.3 E 30 33 16 18 1009.7 1009.7 0.0
22/06:30pm 29.0 28.2 23.0 70 4.1 E 32 35 17 19 1009.6 1009.6 0.0
22/06:00pm 29.1 29.3 23.5 72 3.9 E 28 35 15 19 1009.3 1009.3 0.0
22/05:30pm 28.9 28.0 22.9 70 4.1 E 32 37 17 20 1009.1 1009.1 0.0
22/05:00pm 29.1 28.5 23.3 71 4.0 E 32 39 17 21 1008.9 1008.9 0.0
22/04:30pm 29.2 28.6 23.4 71 4.0 E 32 35 17 19 1008.7 1008.7 0.0
22/04:00pm 29.0 28.4 23.4 72 3.8 ESE 32 35 17 19 1008.7 1008.7 0.0
22/03:30pm 28.9 28.3 23.3 72 3.8 ESE 32 35 17 19 1008.9 1008.9 0.0
22/03:00pm 29.2 28.7 23.6 72 3.9 ESE 32 35 17 19 1009.1 1009.1 0.0
22/02:30pm 29.3 29.1 24.0 73 3.7 ESE 32 39 17 21 1009.3 1009.3 0.0
22/02:00pm 29.8 29.8 23.7 70 4.2 ESE 30 35 16 19 1009.6 1009.6 0.0
22/01:30pm 29.3 28.9 23.7 72 3.9 ESE 32 37 17 20 1010.1 1010.1 0.0
22/01:00pm 29.4 29.2 23.4 70 4.1 ESE 30 39 16 21 1010.4 1010.4 0.0
22/12:30pm 30.5 30.4 24.2 69 4.4 ESE 32 39 17 21 1010.6 1010.6 0.0
22/12:00pm 29.7 28.4 22.4 65 5.0 ESE 33 43 18 23 1010.9 1010.9 0.0
22/11:30am 29.6 27.6 21.8 63 5.3 ESE 35 41 19 22 1011.3 1011.3 0.0
22/11:00am 29.7 28.3 22.2 64 5.1 ESE 33 39 18 21 1011.6 1011.6 0.0
22/10:30am 29.6 28.4 22.3 65 5.0 ESE 32 39 17 21 1011.8 1011.8 0.0
22/10:00am 29.0 27.8 22.7 69 4.3 ESE 33 37 18 20 1011.8 1011.8 0.0
22/09:30am 28.6 27.2 22.3 68 4.3 ESE 33 39 18 21 1011.7 1011.7 0.0

Other formats

Comma delimited format used in spreadsheet applications
http://www.bom.gov.au/fwo/IDD60801/IDD60801.94135.axf

JavaScript Object Notation format (JSON) in row-major order
http://www.bom.gov.au/fwo/IDD60801/IDD60801.94135.json

Data quality

Most of these data are generated automatically and are frequently updated. Quality checks on data are not normally performed. It is possible for incorrect values to appear. Refer to information at About Latest Weather Observations and please check the disclaimer before using these data.